Time;durP1;ratioP1;P1;durP2;ratioP2;P2;SDS_P1;SDS_P2;PMS_P1;PMS_P2;Temp;Humidity;BMP_temperature;BMP_pressure;BME280_temperature;BME280_humidity;BME280_pressure;Samples;Min_cycle;Max_cycle;Signal;HPM_P1;HPM_P2
2024/01/21 00:02:14;;;;;;;176.05;122.75;;;18.80;71.50;;;;;;5033523;28;20025;-65
2024/01/21 00:04:40;;;;;;;177.05;122.07;;;18.80;71.60;;;;;;5037326;28;20021;-67
2024/01/21 00:07:06;;;;;;;176.70;122.43;;;18.80;71.80;;;;;;5036126;28;20021;-66
2024/01/21 00:09:32;;;;;;;173.35;120.72;;;18.80;71.80;;;;;;5033852;28;20021;-65
2024/01/21 00:11:57;;;;;;;169.80;119.20;;;18.80;71.90;;;;;;5033200;28;20022;-68
2024/01/21 00:14:23;;;;;;;176.20;120.93;;;18.80;72.10;;;;;;5033692;28;20036;-66
2024/01/21 00:16:48;;;;;;;173.00;120.22;;;18.80;72.00;;;;;;5035647;28;20044;-66
2024/01/21 00:19:14;;;;;;;174.15;118.45;;;18.80;72.20;;;;;;5034821;28;20025;-66
2024/01/21 00:21:40;;;;;;;168.90;117.63;;;18.80;72.20;;;;;;5033337;28;20053;-66
2024/01/21 00:24:05;;;;;;;166.50;116.28;;;18.80;72.20;;;;;;5033645;28;20087;-66
2024/01/21 00:26:31;;;;;;;169.50;115.93;;;18.80;72.30;;;;;;5037305;28;20039;-66
2024/01/21 00:29:00;;;;;;;164.50;114.93;;;18.80;72.20;;;;;;5041106;28;20025;-66
2024/01/21 00:31:27;;;;;;;170.95;115.53;;;18.80;72.30;;;;;;5048222;28;20017;-67
2024/01/21 00:33:53;;;;;;;165.25;112.40;;;18.80;72.40;;;;;;5052376;28;20051;-66
2024/01/21 00:36:18;;;;;;;159.45;113.07;;;18.80;72.30;;;;;;5048239;28;20552;-67
2024/01/21 00:38:44;;;;;;;157.48;110.85;;;18.80;72.50;;;;;;5049908;28;20060;-67
2024/01/21 00:41:16;;;;;;;167.70;114.00;;;18.80;72.50;;;;;;5034607;28;20025;-66
2024/01/21 00:43:42;;;;;;;155.35;107.22;;;18.80;72.30;;;;;;5033483;28;20108;-66
2024/01/21 00:46:08;;;;;;;163.32;112.88;;;18.80;72.10;;;;;;5033234;28;20100;-66
2024/01/21 00:48:34;;;;;;;161.65;110.80;;;18.80;72.00;;;;;;5033740;28;20435;-66
2024/01/21 00:51:00;;;;;;;151.80;106.60;;;18.80;72.10;;;;;;5045957;28;20029;-67
2024/01/21 00:53:26;;;;;;;155.68;109.75;;;18.80;72.20;;;;;;5033558;28;20080;-67
2024/01/21 00:55:52;;;;;;;156.48;107.78;;;18.80;72.40;;;;;;5033316;28;20036;-66
2024/01/21 00:58:18;;;;;;;161.80;111.57;;;18.80;72.60;;;;;;5033845;28;20025;-69
2024/01/21 01:00:43;;;;;;;149.05;101.40;;;18.80;72.70;;;;;;5034017;28;20033;-63
2024/01/21 01:03:09;;;;;;;149.25;101.45;;;18.80;72.80;;;;;;5035303;28;20048;-64
2024/01/21 01:05:35;;;;;;;154.02;103.50;;;18.80;73.00;;;;;;5035101;28;20053;-63
2024/01/21 01:08:01;;;;;;;146.38;101.40;;;18.70;72.90;;;;;;5033184;28;20049;-65
2024/01/21 01:10:27;;;;;;;158.40;100.30;;;18.70;72.90;;;;;;5032501;28;20029;-63
2024/01/21 01:12:52;;;;;;;147.13;101.78;;;18.70;73.00;;;;;;5035597;28;20037;-64
2024/01/21 01:15:18;;;;;;;152.45;103.68;;;18.70;73.00;;;;;;5033915;28;20148;-66
2024/01/21 01:17:44;;;;;;;142.60;99.55;;;18.70;73.10;;;;;;5033139;28;20033;-64
2024/01/21 01:20:10;;;;;;;140.85;98.15;;;18.70;73.00;;;;;;5032475;28;20040;-64
2024/01/21 01:22:36;;;;;;;144.13;98.97;;;18.70;73.00;;;;;;5034250;28;20076;-64
2024/01/21 01:25:02;;;;;;;144.85;97.53;;;18.70;73.00;;;;;;5039434;28;20417;-63
2024/01/21 01:27:27;;;;;;;151.27;99.15;;;18.70;73.10;;;;;;5036653;28;20034;-65
2024/01/21 01:29:53;;;;;;;137.18;94.80;;;18.70;73.30;;;;;;5036082;28;20085;-65
2024/01/21 01:32:19;;;;;;;135.23;93.88;;;18.70;73.50;;;;;;5036552;28;20091;-66
2024/01/21 01:34:44;;;;;;;148.90;93.43;;;18.70;73.50;;;;;;5038168;28;20029;-66
2024/01/21 01:37:11;;;;;;;135.13;92.22;;;18.80;73.50;;;;;;5037482;28;20035;-66
2024/01/21 01:39:37;;;;;;;133.82;92.90;;;18.70;73.30;;;;;;5035596;28;20048;-67
2024/01/21 01:42:03;;;;;;;132.18;92.15;;;18.70;73.40;;;;;;5037519;28;20380;-66
2024/01/21 01:44:28;;;;;;;130.15;91.28;;;18.70;73.40;;;;;;5038138;28;20026;-66
2024/01/21 01:46:54;;;;;;;126.90;89.13;;;18.70;73.30;;;;;;5040463;28;20017;-66
2024/01/21 01:49:20;;;;;;;122.13;84.53;;;18.70;73.40;;;;;;5037851;28;20025;-66
2024/01/21 01:51:46;;;;;;;124.43;87.55;;;18.70;73.40;;;;;;5036835;28;20035;-66
2024/01/21 01:54:14;;;;;;;129.10;88.50;;;18.70;73.40;;;;;;5036410;28;20556;-66
2024/01/21 01:56:40;;;;;;;128.95;90.32;;;18.70;73.40;;;;;;5036661;28;20103;-66
2024/01/21 01:59:09;;;;;;;126.68;87.80;;;18.70;73.40;;;;;;5038365;28;20477;-66
2024/01/21 02:01:37;;;;;;;120.65;83.75;;;18.70;73.40;;;;;;5035591;28;20044;-66
2024/01/21 02:04:04;;;;;;;122.65;85.20;;;18.70;73.50;;;;;;5034831;28;20024;-66
2024/01/21 02:06:30;;;;;;;122.32;84.65;;;18.70;73.60;;;;;;5038901;28;20079;-67
2024/01/21 02:08:57;;;;;;;126.85;85.65;;;18.70;73.60;;;;;;5038932;28;20095;-67
2024/01/21 02:11:22;;;;;;;124.07;83.93;;;18.70;73.70;;;;;;5035092;28;20029;-66
2024/01/21 02:13:49;;;;;;;121.63;81.85;;;18.70;73.60;;;;;;5036141;28;20032;-66
2024/01/21 02:16:14;;;;;;;120.45;81.20;;;18.70;73.70;;;;;;5035631;28;20021;-65
2024/01/21 02:18:46;;;;;;;118.97;81.13;;;18.70;73.60;;;;;;5036579;28;20116;-66
2024/01/21 02:21:12;;;;;;;;;;;18.70;73.60;;;;;;5037025;28;20040;-65
2024/01/21 02:23:38;;;;;;;112.10;76.75;;;18.70;73.60;;;;;;5035791;28;19916;-67
2024/01/21 02:26:04;;;;;;;116.72;79.75;;;18.70;73.50;;;;;;5035358;28;20084;-66
2024/01/21 02:28:30;;;;;;;118.57;80.38;;;18.70;73.60;;;;;;5035696;28;20037;-66
2024/01/21 02:30:55;;;;;;;107.93;75.88;;;18.70;73.60;;;;;;5037818;28;20029;-66
2024/01/21 02:33:21;;;;;;;111.82;78.60;;;18.70;73.60;;;;;;5035577;28;20024;-68
2024/01/21 02:35:47;;;;;;;112.00;75.60;;;18.70;73.60;;;;;;5034788;28;20093;-67
2024/01/21 02:38:12;;;;;;;113.53;75.72;;;18.70;73.60;;;;;;5035319;28;20384;-71
2024/01/21 02:40:39;;;;;;;109.85;75.97;;;18.70;73.80;;;;;;5035228;28;20080;-69
2024/01/21 02:43:07;;;;;;;110.38;75.57;;;18.70;74.10;;;;;;5037764;28;20025;-67
2024/01/21 02:45:33;;;;;;;107.55;73.90;;;18.80;74.20;;;;;;5035403;28;20029;-67
2024/01/21 02:47:58;;;;;;;108.82;74.10;;;18.80;74.10;;;;;;5035139;28;20117;-69
2024/01/21 02:50:24;;;;;;;105.28;72.18;;;18.80;74.30;;;;;;5034469;28;20100;-67
2024/01/21 02:52:50;;;;;;;103.10;71.88;;;18.80;74.50;;;;;;5037076;28;20542;-66
2024/01/21 02:55:15;;;;;;;107.45;71.18;;;18.80;74.70;;;;;;5036481;28;20025;-67
2024/01/21 02:57:41;;;;;;;102.90;70.20;;;18.80;74.60;;;;;;5035525;28;20036;-65
2024/01/21 03:00:07;;;;;;;119.80;72.43;;;18.80;74.80;;;;;;5035490;28;20315;-64
2024/01/21 03:02:33;;;;;;;109.57;70.20;;;18.80;74.60;;;;;;5035560;28;20029;-67
2024/01/21 03:04:59;;;;;;;101.95;68.07;;;18.80;74.80;;;;;;5041740;28;20108;-65
2024/01/21 03:07:25;;;;;;;101.72;66.47;;;18.80;74.80;;;;;;5035492;28;20456;-66
2024/01/21 03:09:50;;;;;;;100.75;69.45;;;18.80;74.70;;;;;;5034260;28;20556;-65
2024/01/21 03:12:16;;;;;;;95.90;66.75;;;18.80;74.80;;;;;;5034941;28;20022;-66
2024/01/21 03:14:42;;;;;;;96.55;66.82;;;18.80;74.80;;;;;;5035673;28;20485;-65
2024/01/21 03:17:08;;;;;;;94.25;65.53;;;18.80;74.90;;;;;;5036723;28;20033;-66
2024/01/21 03:19:33;;;;;;;91.80;64.15;;;18.70;74.90;;;;;;5034490;28;20098;-66
2024/01/21 03:22:00;;;;;;;98.28;66.65;;;18.80;75.10;;;;;;5034033;28;20097;-65
2024/01/21 03:24:26;;;;;;;95.10;65.20;;;18.80;75.20;;;;;;5034396;28;20477;-66
2024/01/21 03:26:51;;;;;;;93.55;64.07;;;18.70;75.10;;;;;;5036845;28;20033;-65
2024/01/21 03:29:17;;;;;;;94.32;64.82;;;18.80;75.20;;;;;;5034418;28;20151;-64
2024/01/21 03:31:42;;;;;;;91.13;63.30;;;18.70;75.20;;;;;;5033900;28;20470;-67
2024/01/21 03:34:08;;;;;;;96.72;65.03;;;18.70;75.20;;;;;;5034206;28;20091;-67
2024/01/21 03:36:34;;;;;;;92.25;63.08;;;18.80;75.60;;;;;;5034311;28;20021;-67
2024/01/21 03:38:59;;;;;;;94.93;62.33;;;18.80;75.30;;;;;;5037707;28;20079;-66
2024/01/21 03:41:25;;;;;;;90.47;62.08;;;18.80;75.40;;;;;;5033818;28;20441;-66
2024/01/21 03:43:50;;;;;;;87.20;60.42;;;18.80;75.60;;;;;;5034671;28;20022;-65
2024/01/21 03:46:17;;;;;;;90.00;59.05;;;18.80;75.30;;;;;;5033755;28;20099;-65
2024/01/21 03:48:43;;;;;;;89.03;60.95;;;18.80;75.30;;;;;;5034238;28;20443;-65
2024/01/21 03:51:12;;;;;;;82.22;57.35;;;18.70;75.20;;;;;;5035269;28;20024;-66
2024/01/21 03:53:39;;;;;;;100.20;58.55;;;18.80;75.30;;;;;;5034196;28;20025;-65
2024/01/21 03:56:15;;;;;;;85.05;58.00;;;18.80;75.50;;;;;;5033795;28;20029;-64
2024/01/21 03:58:41;;;;;;;88.80;58.88;;;18.80;75.40;;;;;;5034968;28;20022;-65
2024/01/21 04:01:06;;;;;;;84.55;56.42;;;18.80;75.60;;;;;;5035623;28;20032;-67
2024/01/21 04:03:33;;;;;;;90.45;55.38;;;18.80;75.10;;;;;;5034090;28;20036;-65
2024/01/21 04:05:58;;;;;;;84.90;53.92;;;18.90;75.40;;;;;;5036783;28;20025;-70
2024/01/21 04:08:24;;;;;;;86.43;54.88;;;18.90;75.30;;;;;;5033856;28;20021;-65
2024/01/21 04:10:50;;;;;;;85.32;55.85;;;18.90;75.10;;;;;;5035250;28;20389;-68
2024/01/21 04:13:17;;;;;;;87.13;54.88;;;18.90;74.80;;;;;;5034863;28;20021;-65
2024/01/21 04:15:42;;;;;;;93.28;53.72;;;18.90;74.80;;;;;;5033916;28;20026;-65
2024/01/21 04:18:08;;;;;;;82.45;51.95;;;18.90;74.60;;;;;;5033737;28;20029;-66
2024/01/21 04:20:33;;;;;;;76.50;51.85;;;18.80;74.70;;;;;;5033250;28;20037;-66
2024/01/21 04:22:59;;;;;;;76.60;52.80;;;18.90;74.60;;;;;;5036987;28;20067;-70
2024/01/21 04:25:25;;;;;;;78.22;52.33;;;18.80;74.40;;;;;;5033777;28;20030;-68
2024/01/21 04:27:50;;;;;;;77.70;52.22;;;18.90;74.50;;;;;;5033898;28;20018;-65
2024/01/21 04:30:16;;;;;;;72.28;49.75;;;18.80;74.30;;;;;;5032975;28;20022;-65
2024/01/21 04:32:42;;;;;;;72.55;50.40;;;18.90;74.40;;;;;;5034794;28;20017;-66
2024/01/21 04:35:08;;;;;;;74.32;50.13;;;18.90;74.10;;;;;;5035929;28;20119;-67
2024/01/21 04:37:33;;;;;;;79.97;51.05;;;18.80;74.50;;;;;;5033666;28;20448;-67
2024/01/21 04:39:59;;;;;;;74.28;50.55;;;18.90;74.40;;;;;;5031789;28;20098;-68
2024/01/21 04:42:26;;;;;;;77.60;49.25;;;18.90;74.20;;;;;;5033622;28;20025;-66
2024/01/21 04:44:51;;;;;;;77.10;48.92;;;18.90;74.30;;;;;;5035830;28;20022;-66
2024/01/21 04:47:17;;;;;;;71.55;48.78;;;18.90;74.40;;;;;;5034445;28;20014;-66
2024/01/21 04:49:42;;;;;;;74.05;47.45;;;18.80;74.40;;;;;;5033428;28;20025;-66
2024/01/21 04:52:08;;;;;;;72.53;48.88;;;18.80;74.40;;;;;;5032843;28;20022;-67
2024/01/21 04:54:34;;;;;;;68.00;47.42;;;18.80;74.30;;;;;;5033789;28;20017;-67
2024/01/21 04:56:59;;;;;;;68.15;45.90;;;18.90;74.30;;;;;;5036599;28;20036;-66
2024/01/21 04:59:25;;;;;;;69.57;47.15;;;18.80;74.20;;;;;;5035978;28;20156;-67
2024/01/21 05:01:51;;;;;;;68.43;46.78;;;18.80;74.60;;;;;;5036938;28;20032;-67
2024/01/21 05:04:16;;;;;;;67.68;45.78;;;18.80;74.60;;;;;;5037618;28;20511;-67
2024/01/21 05:06:42;;;;;;;68.50;46.70;;;18.80;74.40;;;;;;5040590;28;20053;-67
2024/01/21 05:09:09;;;;;;;63.78;44.40;;;18.80;74.10;;;;;;5039423;28;20021;-65
2024/01/21 05:11:35;;;;;;;66.60;45.10;;;18.80;74.50;;;;;;5036583;28;20072;-66
2024/01/21 05:14:01;;;;;;;66.75;44.83;;;18.80;74.30;;;;;;5037175;28;20021;-66
2024/01/21 05:16:26;;;;;;;63.33;43.00;;;18.80;74.40;;;;;;5036931;28;20404;-68
2024/01/21 05:18:52;;;;;;;65.13;44.50;;;18.80;74.60;;;;;;5038013;28;20033;-66
2024/01/21 05:21:21;;;;;;;62.17;44.08;;;18.80;74.60;;;;;;5036934;28;20054;-67
2024/01/21 05:23:50;;;;;;;64.03;43.25;;;18.80;74.70;;;;;;5037323;28;20029;-67
2024/01/21 05:26:15;;;;;;;62.65;43.08;;;18.80;74.50;;;;;;5036703;28;20018;-68
2024/01/21 05:28:41;;;;;;;62.45;42.10;;;18.80;74.50;;;;;;5037697;28;20076;-67
2024/01/21 05:31:07;;;;;;;64.28;42.20;;;18.80;74.50;;;;;;5038533;28;20021;-67
2024/01/21 05:33:36;;;;;;;63.75;41.60;;;18.80;74.50;;;;;;5036775;28;20049;-67
2024/01/21 05:36:01;;;;;;;60.03;41.10;;;18.80;74.60;;;;;;5036801;28;20083;-66
2024/01/21 05:38:27;;;;;;;58.55;39.95;;;18.80;74.40;;;;;;5035860;28;20029;-66
2024/01/21 05:40:52;;;;;;;63.35;39.78;;;18.80;74.30;;;;;;5038917;28;20025;-65
2024/01/21 05:43:18;;;;;;;59.33;40.45;;;18.80;74.30;;;;;;5038753;28;20025;-66
2024/01/21 05:45:44;;;;;;;61.15;40.20;;;18.80;74.40;;;;;;5037197;28;20032;-67
2024/01/21 05:48:10;;;;;;;55.10;38.42;;;18.80;74.50;;;;;;5036619;28;20025;-67
2024/01/21 05:50:35;;;;;;;55.15;38.03;;;18.80;74.20;;;;;;5036056;28;20389;-67
2024/01/21 05:53:05;;;;;;;59.42;38.60;;;18.80;74.10;;;;;;5039706;28;20040;-69
2024/01/21 05:55:33;;;;;;;57.25;38.70;;;18.80;74.40;;;;;;5035079;28;20029;-66
2024/01/21 05:57:59;;;;;;;52.80;37.67;;;18.80;74.10;;;;;;5036247;28;20045;-66
2024/01/21 06:00:25;;;;;;;54.72;36.83;;;18.80;74.20;;;;;;5035447;28;20029;-66
2024/01/21 06:02:51;;;;;;;54.67;38.55;;;18.80;74.10;;;;;;5038409;28;20112;-66
2024/01/21 06:05:17;;;;;;;52.65;36.95;;;18.80;74.00;;;;;;5040092;28;20025;-65
2024/01/21 06:07:43;;;;;;;51.00;36.33;;;18.80;74.00;;;;;;5036284;28;20027;-65
2024/01/21 06:10:09;;;;;;;49.90;35.72;;;18.80;74.00;;;;;;5035110;28;20079;-68
2024/01/21 06:12:35;;;;;;;52.38;35.85;;;18.80;74.20;;;;;;5036176;28;20025;-66
2024/01/21 06:15:01;;;;;;;49.28;36.13;;;18.80;74.10;;;;;;5039017;28;20055;-64
2024/01/21 06:17:27;;;;;;;49.95;34.47;;;18.80;74.10;;;;;;5036256;28;20049;-65
2024/01/21 06:19:52;;;;;;;52.03;34.28;;;18.80;74.10;;;;;;5035369;28;20037;-65
2024/01/21 06:22:18;;;;;;;51.92;34.22;;;18.80;74.10;;;;;;5035811;28;20117;-67
2024/01/21 06:24:43;;;;;;;47.72;34.42;;;18.70;73.90;;;;;;5037213;28;20018;-66
2024/01/21 06:27:09;;;;;;;51.30;35.33;;;18.80;74.10;;;;;;5038265;28;20108;-65
2024/01/21 06:29:35;;;;;;;49.70;33.45;;;18.80;74.40;;;;;;5035556;28;20108;-66
2024/01/21 06:32:00;;;;;;;46.38;33.70;;;18.80;74.20;;;;;;5035680;28;20026;-67
2024/01/21 06:34:26;;;;;;;50.25;31.45;;;18.80;74.40;;;;;;5037518;28;20022;-70
2024/01/21 06:36:52;;;;;;;48.78;33.28;;;18.80;74.70;;;;;;5039587;28;20071;-66
2024/01/21 06:39:17;;;;;;;48.65;32.03;;;18.80;75.10;;;;;;5045205;28;20029;-65
2024/01/21 06:41:43;;;;;;;53.95;34.42;;;18.80;75.30;;;;;;5048522;28;20021;-66
2024/01/21 06:44:09;;;;;;;47.85;31.20;;;18.80;75.10;;;;;;5048848;28;20524;-68
2024/01/21 06:46:34;;;;;;;49.17;31.55;;;18.80;74.80;;;;;;5049482;28;20392;-68
2024/01/21 06:49:00;;;;;;;52.65;31.50;;;18.80;74.90;;;;;;5038877;28;20639;-67
2024/01/21 06:51:34;;;;;;;44.00;30.25;;;18.80;74.80;;;;;;5034830;28;20378;-65
2024/01/21 06:54:00;;;;;;;57.05;29.70;;;18.80;74.60;;;;;;5035478;28;20029;-69
2024/01/21 06:58:54;;;;;;;53.90;30.10;;;18.80;75.40;;;;;;4977460;28;20046;-66
2024/01/21 07:01:19;;;;;;;53.13;28.75;;;18.80;75.00;;;;;;4976288;28;20462;-64
2024/01/21 07:03:45;;;;;;;47.65;29.63;;;18.80;74.50;;;;;;4976038;28;20402;-64
2024/01/21 07:06:11;;;;;;;47.15;28.48;;;18.90;74.50;;;;;;4986693;28;20023;-64
2024/01/21 07:08:38;;;;;;;51.33;29.02;;;18.90;74.10;;;;;;4988613;28;20026;-65
2024/01/21 07:11:07;;;;;;;52.17;28.08;;;18.90;73.90;;;;;;4974898;28;20598;-67
2024/01/21 07:13:33;;;;;;;45.05;27.40;;;18.90;73.70;;;;;;4983860;28;20100;-66
2024/01/21 07:15:59;;;;;;;42.65;27.17;;;18.90;73.50;;;;;;4980598;28;20031;-65
2024/01/21 07:18:25;;;;;;;41.38;27.45;;;18.90;73.30;;;;;;4985713;28;20030;-66
2024/01/21 07:20:50;;;;;;;40.35;26.83;;;18.80;73.20;;;;;;4974630;28;20055;-66
2024/01/21 07:23:16;;;;;;;24.83;17.17;;;18.80;73.20;;;;;;4984917;28;20061;-66
2024/01/21 07:25:42;;;;;;;19.45;12.65;;;18.50;53.10;;;;;;4981583;28;20390;-66
2024/01/21 07:28:08;;;;;;;14.07;11.23;;;15.50;35.20;;;;;;4979119;28;20022;-65
2024/01/21 07:30:33;;;;;;;16.38;11.93;;;12.50;36.50;;;;;;4987435;28;20114;-65
2024/01/21 07:32:59;;;;;;;17.48;11.90;;;;;;;;;;4975646;28;20030;-64
2024/01/21 07:35:25;;;;;;;20.13;13.70;;;;;;;;;;4979179;28;20101;-64
2024/01/21 07:37:51;;;;;;;22.05;14.40;;;;;;;;;;4981432;28;20429;-66
2024/01/21 07:40:17;;;;;;;22.63;13.82;;;12.50;73.90;;;;;;4984934;28;20095;-64
2024/01/21 07:42:42;;;;;;;23.38;14.65;;;13.00;75.60;;;;;;4975836;28;20046;-64
2024/01/21 07:45:08;;;;;;;21.23;13.82;;;13.90;75.70;;;;;;4986969;28;20026;-64
2024/01/21 07:47:34;;;;;;;23.48;12.93;;;14.50;75.00;;;;;;4980150;28;20054;-65
2024/01/21 07:49:59;;;;;;;23.50;13.63;;;15.00;74.20;;;;;;4979273;28;20046;-64
2024/01/21 07:52:25;;;;;;;22.92;13.32;;;15.50;73.50;;;;;;4986859;28;20072;-65
2024/01/21 07:54:51;;;;;;;27.85;12.95;;;16.00;72.80;;;;;;4975042;28;20053;-65
2024/01/21 07:57:17;;;;;;;20.98;10.95;;;16.20;72.20;;;;;;4985401;28;20039;-65
2024/01/21 07:59:42;;;;;;;26.15;12.27;;;16.60;71.80;;;;;;4980805;28;20022;-64
2024/01/21 08:02:11;;;;;;;19.67;10.55;;;16.60;58.20;;;;;;4978045;28;20027;-65
2024/01/21 08:04:37;;;;;;;16.10;9.98;;;16.70;69.70;;;;;;4988188;28;20105;-64
2024/01/21 08:07:02;;;;;;;25.90;10.27;;;16.90;69.90;;;;;;4987400;28;20146;-65
2024/01/21 08:09:28;;;;;;;22.23;9.32;;;17.00;69.70;;;;;;4978782;28;20072;-63
2024/01/21 08:11:54;;;;;;;16.10;9.45;;;17.20;69.50;;;;;;4979831;28;20124;-64
2024/01/21 08:14:19;;;;;;;20.45;9.38;;;17.40;69.30;;;;;;4985636;28;20034;-64
2024/01/21 08:16:45;;;;;;;16.75;9.25;;;17.50;69.10;;;;;;4974992;28;20019;-65
2024/01/21 08:19:11;;;;;;;19.27;8.70;;;17.60;68.90;;;;;;4985963;28;20026;-65
2024/01/21 08:21:36;;;;;;;14.23;8.68;;;17.70;68.80;;;;;;4979206;28;20034;-63
2024/01/21 08:24:02;;;;;;;14.73;8.05;;;17.80;68.50;;;;;;4979539;28;20026;-63
2024/01/21 08:26:28;;;;;;;15.40;8.40;;;17.90;68.40;;;;;;4980790;28;20078;-65
2024/01/21 08:28:53;;;;;;;23.38;9.73;;;18.00;68.40;;;;;;4984108;28;20022;-65
2024/01/21 08:31:19;;;;;;;16.45;9.00;;;18.00;68.40;;;;;;4985834;28;20023;-62
2024/01/21 08:33:45;;;;;;;16.02;8.38;;;18.00;69.10;;;;;;4984378;28;20031;-63
2024/01/21 08:36:11;;;;;;;19.80;8.40;;;18.20;69.50;;;;;;4981684;28;20106;-64
2024/01/21 08:38:37;;;;;;;15.65;9.32;;;18.30;69.50;;;;;;4991482;28;20382;-63
2024/01/21 08:41:02;;;;;;;18.50;8.57;;;18.30;69.50;;;;;;4988040;28;20109;-64
2024/01/21 08:43:28;;;;;;;17.40;8.60;;;18.40;69.40;;;;;;4988948;28;20129;-64
2024/01/21 08:45:54;;;;;;;18.25;8.18;;;18.40;69.20;;;;;;4984031;28;20023;-64
2024/01/21 08:48:20;;;;;;;12.20;7.68;;;18.40;69.10;;;;;;4989258;28;20128;-64
2024/01/21 08:50:45;;;;;;;15.10;8.63;;;18.50;68.90;;;;;;4977994;28;20370;-64
2024/01/21 08:53:11;;;;;;;14.43;7.35;;;18.50;68.70;;;;;;4989586;28;20018;-64
2024/01/21 08:55:37;;;;;;;16.10;8.55;;;18.50;68.60;;;;;;4982998;28;20026;-63
2024/01/21 08:58:02;;;;;;;12.68;7.75;;;18.50;68.40;;;;;;4985089;28;20538;-63
2024/01/21 09:00:28;;;;;;;13.60;7.45;;;18.60;68.30;;;;;;4986551;28;20026;-64
2024/01/21 09:02:54;;;;;;;15.40;7.32;;;18.60;68.20;;;;;;4986732;28;20045;-64
2024/01/21 09:05:19;;;;;;;13.60;7.47;;;18.60;68.00;;;;;;4982992;28;20034;-62
2024/01/21 09:07:45;;;;;;;16.08;6.78;;;18.60;68.00;;;;;;4983938;28;20018;-63
2024/01/21 09:10:11;;;;;;;12.63;7.60;;;18.60;68.00;;;;;;4986243;28;20365;-63
2024/01/21 09:12:36;;;;;;;13.40;7.28;;;18.50;68.00;;;;;;4977402;28;20196;-69
2024/01/21 09:15:03;;;;;;;19.45;8.02;;;18.50;68.00;;;;;;4989866;28;20603;-65
2024/01/21 09:17:28;;;;;;;23.88;7.90;;;18.50;69.80;;;;;;4981501;28;20110;-68
2024/01/21 09:19:54;;;;;;;12.07;6.78;;;18.60;69.90;;;;;;4983038;28;20036;-66
2024/01/21 09:22:20;;;;;;;14.90;7.10;;;18.50;69.90;;;;;;4988674;28;20030;-67
2024/01/21 09:24:47;;;;;;;13.63;7.32;;;18.50;70.10;;;;;;4977907;28;20106;-67
2024/01/21 09:27:13;;;;;;;15.48;6.75;;;18.50;70.30;;;;;;4988892;28;20038;-67
2024/01/21 09:29:39;;;;;;;21.38;6.82;;;18.50;70.30;;;;;;4980784;28;20072;-67
2024/01/21 09:32:05;;;;;;;15.52;6.88;;;18.50;70.40;;;;;;4980841;28;20015;-67
2024/01/21 09:34:30;;;;;;;18.70;6.57;;;18.50;70.30;;;;;;4990101;28;20026;-66
2024/01/21 09:36:56;;;;;;;16.17;6.43;;;18.50;70.40;;;;;;4977759;28;20099;-66
2024/01/21 09:39:22;;;;;;;14.65;6.55;;;18.50;70.40;;;;;;4987292;28;20470;-66
2024/01/21 09:41:49;;;;;;;16.38;8.07;;;18.50;70.50;;;;;;4983940;28;20026;-67
2024/01/21 09:44:17;;;;;;;12.50;6.25;;;18.50;70.60;;;;;;4979973;28;20015;-66
2024/01/21 09:46:43;;;;;;;15.82;5.95;;;18.50;70.60;;;;;;4991094;28;20026;-66
2024/01/21 09:49:11;;;;;;;13.57;6.10;;;18.50;70.80;;;;;;4988870;28;20126;-67
2024/01/21 09:51:38;;;;;;;15.70;6.30;;;18.50;70.90;;;;;;4981475;28;20506;-66
2024/01/21 09:54:06;;;;;;;15.95;5.93;;;18.50;70.90;;;;;;4985200;28;20061;-66
2024/01/21 09:56:34;;;;;;;12.20;6.30;;;18.50;71.00;;;;;;4990319;28;20072;-64
2024/01/21 09:59:05;;;;;;;10.68;5.90;;;18.50;71.00;;;;;;4987695;28;20382;-69
2024/01/21 10:01:32;;;;;;;11.38;5.30;;;18.50;70.90;;;;;;4988574;28;20014;-67
2024/01/21 10:03:57;;;;;;;9.88;5.47;;;18.50;70.90;;;;;;4985497;28;20415;-67
2024/01/21 10:06:25;;;;;;;13.02;5.80;;;18.50;70.90;;;;;;4978392;28;20047;-66
2024/01/21 10:08:50;;;;;;;10.40;5.05;;;18.50;70.90;;;;;;4987910;28;20029;-66
2024/01/21 10:11:16;;;;;;;11.10;5.38;;;18.50;70.90;;;;;;4982834;28;20011;-66
2024/01/21 10:13:42;;;;;;;29.25;6.65;;;18.50;70.80;;;;;;4982869;28;20366;-66
2024/01/21 10:16:09;;;;;;;14.02;5.72;;;18.50;70.80;;;;;;4985619;28;20026;-66
2024/01/21 10:18:35;;;;;;;10.80;4.93;;;18.50;70.70;;;;;;4985567;28;20085;-67
2024/01/21 10:21:05;;;;;;;8.60;5.28;;;18.50;70.70;;;;;;4984349;28;20469;-68
2024/01/21 10:23:31;;;;;;;10.10;5.20;;;18.50;70.80;;;;;;4990262;28;20101;-65
2024/01/21 10:25:57;;;;;;;10.13;5.32;;;18.50;70.70;;;;;;4980158;28;20027;-66
2024/01/21 10:28:22;;;;;;;8.07;5.45;;;18.50;70.70;;;;;;4981298;28;20022;-66
2024/01/21 10:30:48;;;;;;;9.68;5.40;;;18.50;70.50;;;;;;4976212;28;20077;-69
2024/01/21 10:33:14;;;;;;;12.40;5.40;;;18.40;70.30;;;;;;4984550;28;20102;-68
2024/01/21 10:35:41;;;;;;;10.38;4.93;;;18.50;70.40;;;;;;4982764;28;20069;-66
2024/01/21 10:38:15;;;;;;;12.73;4.97;;;18.40;70.50;;;;;;4980743;28;20022;-66
2024/01/21 10:40:45;;;;;;;8.25;4.28;;;18.50;70.50;;;;;;4989106;28;20022;-66
2024/01/21 10:43:13;;;;;;;9.07;4.82;;;18.50;70.60;;;;;;4978323;28;20018;-66
2024/01/21 10:45:41;;;;;;;9.25;5.15;;;18.40;70.70;;;;;;4984053;28;20029;-66
2024/01/21 10:48:08;;;;;;;8.45;4.60;;;18.50;70.80;;;;;;4984787;28;20015;-66
2024/01/21 10:50:34;;;;;;;8.98;5.38;;;18.40;70.70;;;;;;4988324;28;20133;-66
2024/01/21 10:53:01;;;;;;;9.63;5.00;;;18.50;70.80;;;;;;4976801;28;20019;-67
2024/01/21 10:55:28;;;;;;;8.70;4.80;;;18.40;70.90;;;;;;4979473;28;20024;-65
2024/01/21 10:57:54;;;;;;;10.82;5.25;;;18.50;70.90;;;;;;4981713;28;20038;-66
2024/01/21 11:00:20;;;;;;;8.48;4.60;;;18.50;70.90;;;;;;4983154;28;20041;-67
2024/01/21 11:03:24;;;;;;;10.02;4.78;;;18.50;71.00;;;;;;4984988;28;20018;-67
2024/01/21 11:06:04;;;;;;;7.15;4.55;;;18.50;71.20;;;;;;4985767;28;20018;-67
2024/01/21 11:08:31;;;;;;;10.95;5.03;;;18.40;71.40;;;;;;4981321;28;20054;-67
2024/01/21 11:11:06;;;;;;;20.13;5.45;;;18.50;71.60;;;;;;4981535;28;20022;-68
2024/01/21 11:13:38;;;;;;;9.68;4.80;;;18.50;71.60;;;;;;4980903;28;20022;-67
2024/01/21 11:16:06;;;;;;;10.05;4.85;;;18.50;71.60;;;;;;4988198;28;20018;-68
2024/01/21 11:18:31;;;;;;;12.32;8.32;;;18.50;71.60;;;;;;4991815;28;20544;-68
2024/01/21 11:21:01;;;;;;;16.83;11.18;;;18.50;71.80;;;;;;4975278;28;20026;-67
2024/01/21 11:23:27;;;;;;;17.48;9.85;;;18.50;72.10;;;;;;4979560;28;20014;-67
2024/01/21 11:25:54;;;;;;;19.50;9.82;;;18.50;72.00;;;;;;4980869;28;20106;-67
2024/01/21 11:28:27;;;;;;;13.13;9.52;;;18.50;71.80;;;;;;4990379;28;20018;-68
2024/01/21 11:31:01;;;;;;;12.82;8.77;;;18.50;71.40;;;;;;4988128;28;20022;-68
2024/01/21 11:33:28;;;;;;;17.17;8.07;;;18.50;71.30;;;;;;4979249;28;20022;-68
2024/01/21 11:35:55;;;;;;;15.60;11.13;;;18.50;71.20;;;;;;4980558;28;20019;-68
2024/01/21 11:38:22;;;;;;;16.15;11.30;;;18.40;71.30;;;;;;4984995;28;20026;-68
2024/01/21 11:41:10;;;;;;;18.13;12.60;;;18.40;71.70;;;;;;4982127;28;20023;-68
2024/01/21 11:43:36;;;;;;;19.13;12.80;;;18.40;72.00;;;;;;4977290;28;20105;-68
2024/01/21 11:46:03;;;;;;;22.92;13.95;;;18.40;72.40;;;;;;4983095;28;20106;-67
2024/01/21 11:48:29;;;;;;;16.75;12.73;;;18.40;72.50;;;;;;4976459;28;20022;-68
2024/01/21 11:50:56;;;;;;;16.73;12.80;;;18.50;72.60;;;;;;4987087;28;20490;-68
2024/01/21 11:53:22;;;;;;;17.38;12.27;;;18.40;72.90;;;;;;4977233;28;20039;-69
2024/01/21 11:55:48;;;;;;;16.77;12.80;;;18.40;73.00;;;;;;4988325;28;20064;-69
2024/01/21 11:58:15;;;;;;;15.80;12.07;;;18.40;72.90;;;;;;4986585;28;20029;-68
2024/01/21 12:00:41;;;;;;;17.83;12.15;;;18.40;73.00;;;;;;4974617;28;20049;-67
2024/01/21 12:03:07;;;;;;;17.90;12.00;;;18.40;73.00;;;;;;4980768;28;20010;-68
2024/01/21 12:05:35;;;;;;;18.50;11.18;;;18.40;73.10;;;;;;4983445;28;20370;-68
2024/01/21 12:08:02;;;;;;;14.90;10.93;;;18.40;73.10;;;;;;4983065;28;20456;-70
2024/01/21 12:10:28;;;;;;;19.52;10.98;;;18.40;73.70;;;;;;4976965;28;20398;-69
2024/01/21 12:12:54;;;;;;;14.73;9.77;;;18.40;73.50;;;;;;4990683;28;20037;-68
2024/01/21 12:15:19;;;;;;;12.98;10.10;;;18.40;73.00;;;;;;4984841;28;20296;-67
2024/01/21 12:17:55;;;;;;;15.07;9.57;;;18.40;72.50;;;;;;4983267;28;20019;-70
2024/01/21 12:20:21;;;;;;;12.88;9.73;;;18.40;72.30;;;;;;4982027;28;20022;-68
2024/01/21 12:22:48;;;;;;;10.55;8.98;;;18.30;72.20;;;;;;4973854;28;20026;-69
2024/01/21 12:25:13;;;;;;;14.18;9.63;;;18.30;72.00;;;;;;4985815;28;20019;-68
2024/01/21 12:27:45;;;;;;;12.73;9.02;;;18.30;71.90;;;;;;4979471;28;20810;-69